sensor_id;sensor_type;location;lat;lon;timestamp;pressure;altitude;pressure_sealevel;temperature
69415;BMP280;56608;43.530;-5.652;2023-04-03T00:00:59;102446.28;;;13.39
69415;BMP280;56608;43.530;-5.652;2023-04-03T00:02:00;102440.88;;;13.39
69415;BMP280;56608;43.530;-5.652;2023-04-03T00:03:00;102438.53;;;13.41
69415;BMP280;56608;43.530;-5.652;2023-04-03T00:04:00;102441.59;;;13.43
69415;BMP280;56608;43.530;-5.652;2023-04-03T00:05:01;102439.25;;;13.45
69415;BMP280;56608;43.530;-5.652;2023-04-03T00:06:01;102440.78;;;13.46
69415;BMP280;56608;43.530;-5.652;2023-04-03T00:07:01;102432.69;;;13.46
69415;BMP280;56608;43.530;-5.652;2023-04-03T00:08:02;102444.25;;;13.47
69415;BMP280;56608;43.530;-5.652;2023-04-03T00:09:02;102432.25;;;13.48
69415;BMP280;56608;43.530;-5.652;2023-04-03T00:10:03;102429.22;;;13.46
69415;BMP280;56608;43.530;-5.652;2023-04-03T00:11:03;102432.25;;;13.48
69415;BMP280;56608;43.530;-5.652;2023-04-03T00:12:04;102426.09;;;13.47
69415;BMP280;56608;43.530;-5.652;2023-04-03T00:13:05;102426.91;;;13.44
69415;BMP280;56608;43.530;-5.652;2023-04-03T00:14:05;102425.38;;;13.43
69415;BMP280;56608;43.530;-5.652;2023-04-03T00:15:06;102436.19;;;13.43
69415;BMP280;56608;43.530;-5.652;2023-04-03T00:16:07;102420.06;;;13.40
69415;BMP280;56608;43.530;-5.652;2023-04-03T00:17:08;102425.50;;;13.36
69415;BMP280;56608;43.530;-5.652;2023-04-03T00:18:08;102421.62;;;13.37
69415;BMP280;56608;43.530;-5.652;2023-04-03T00:19:08;102423.97;;;13.35
69415;BMP280;56608;43.530;-5.652;2023-04-03T00:20:11;102419.34;;;13.36
69415;BMP280;56608;43.530;-5.652;2023-04-03T00:21:12;102423.97;;;13.35
69415;BMP280;56608;43.530;-5.652;2023-04-03T00:22:13;102426.25;;;13.37
69415;BMP280;56608;43.530;-5.652;2023-04-03T00:23:13;102424.41;;;13.34
69415;BMP280;56608;43.530;-5.652;2023-04-03T00:24:14;102414.38;;;13.34
69415;BMP280;56608;43.530;-5.652;2023-04-03T00:25:15;102415.47;;;13.37
69415;BMP280;56608;43.530;-5.652;2023-04-03T00:26:15;102422.47;;;13.34
69415;BMP280;56608;43.530;-5.652;2023-04-03T00:27:15;102411.66;;;13.34
69415;BMP280;56608;43.530;-5.652;2023-04-03T00:28:16;102416.22;;;13.37
69415;BMP280;56608;43.530;-5.652;2023-04-03T00:29:16;102414.78;;;13.32
69415;BMP280;56608;43.530;-5.652;2023-04-03T00:30:17;102412.06;;;13.32
69415;BMP280;56608;43.530;-5.652;2023-04-03T00:31:18;102415.53;;;13.33
69415;BMP280;56608;43.530;-5.652;2023-04-03T00:32:18;102409.37;;;13.32
69415;BMP280;56608;43.530;-5.652;2023-04-03T00:33:19;102406.28;;;13.34
69415;BMP280;56608;43.530;-5.652;2023-04-03T00:34:21;102401.75;;;13.27
69415;BMP280;56608;43.530;-5.652;2023-04-03T00:35:22;102405.53;;;13.30
69415;BMP280;56608;43.530;-5.652;2023-04-03T00:36:22;102403.63;;;13.30
69415;BMP280;56608;43.530;-5.652;2023-04-03T00:37:23;102395.50;;;13.30
69415;BMP280;56608;43.530;-5.652;2023-04-03T00:38:23;102397.81;;;13.32
69415;BMP280;56608;43.530;-5.652;2023-04-03T00:39:23;102400.88;;;13.34
69415;BMP280;56608;43.530;-5.652;2023-04-03T00:40:24;102400.50;;;13.32
69415;BMP280;56608;43.530;-5.652;2023-04-03T00:41:25;102394.72;;;13.34
69415;BMP280;56608;43.530;-5.652;2023-04-03T00:42:26;102388.94;;;13.31
69415;BMP280;56608;43.530;-5.652;2023-04-03T00:43:26;102385.56;;;13.27
69415;BMP280;56608;43.530;-5.652;2023-04-03T00:45:35;102387.81;;;13.29
69415;BMP280;56608;43.530;-5.652;2023-04-03T00:46:35;102385.13;;;13.29
69415;BMP280;56608;43.530;-5.652;2023-04-03T00:47:36;102379.72;;;13.29
69415;BMP280;56608;43.530;-5.652;2023-04-03T00:48:43;102384.31;;;13.32
69415;BMP280;56608;43.530;-5.652;2023-04-03T00:49:44;102380.09;;;13.31
69415;BMP280;56608;43.530;-5.652;2023-04-03T00:50:45;102379.72;;;13.29
69415;BMP280;56608;43.530;-5.652;2023-04-03T00:51:46;102378.19;;;13.28
69415;BMP280;56608;43.530;-5.652;2023-04-03T00:52:46;102376.25;;;13.28
69415;BMP280;56608;43.530;-5.652;2023-04-03T00:53:50;102374.78;;;13.24
69415;BMP280;56608;43.530;-5.652;2023-04-03T00:54:54;102376.72;;;13.23
69415;BMP280;56608;43.530;-5.652;2023-04-03T00:55:54;102372.47;;;13.26
69415;BMP280;56608;43.530;-5.652;2023-04-03T00:56:56;102370.13;;;13.24
69415;BMP280;56608;43.530;-5.652;2023-04-03T00:57:57;102362.44;;;13.23
69415;BMP280;56608;43.530;-5.652;2023-04-03T00:59:04;102369.00;;;13.22
69415;BMP280;56608;43.530;-5.652;2023-04-03T01:00:06;102367.44;;;13.24
69415;BMP280;56608;43.530;-5.652;2023-04-03T01:01:10;102366.31;;;13.22
69415;BMP280;56608;43.530;-5.652;2023-04-03T01:02:12;102357.06;;;13.23
69415;BMP280;56608;43.530;-5.652;2023-04-03T01:03:12;102357.81;;;13.23
69415;BMP280;56608;43.530;-5.652;2023-04-03T01:04:29;102356.72;;;13.21
69415;BMP280;56608;43.530;-5.652;2023-04-03T01:05:29;102358.38;;;13.15
69415;BMP280;56608;43.530;-5.652;2023-04-03T01:06:32;102353.28;;;13.17
69415;BMP280;56608;43.530;-5.652;2023-04-03T01:07:33;102365.63;;;13.18
69415;BMP280;56608;43.530;-5.652;2023-04-03T01:08:36;102363.31;;;13.16
69415;BMP280;56608;43.530;-5.652;2023-04-03T01:09:37;102361.06;;;13.15
69415;BMP280;56608;43.530;-5.652;2023-04-03T01:10:38;102365.69;;;13.14
69415;BMP280;56608;43.530;-5.652;2023-04-03T01:11:38;102358.00;;;13.13
69415;BMP280;56608;43.530;-5.652;2023-04-03T01:12:39;102348.75;;;13.14
69415;BMP280;56608;43.530;-5.652;2023-04-03T01:13:40;102357.25;;;13.12
69415;BMP280;56608;43.530;-5.652;2023-04-03T01:14:40;102349.91;;;13.13
69415;BMP280;56608;43.530;-5.652;2023-04-03T01:15:41;102345.69;;;13.12
69415;BMP280;56608;43.530;-5.652;2023-04-03T01:16:41;102344.56;;;13.09
69415;BMP280;56608;43.530;-5.652;2023-04-03T01:17:51;102338.75;;;13.11
69415;BMP280;56608;43.530;-5.652;2023-04-03T01:18:52;102336.06;;;13.11
69415;BMP280;56608;43.530;-5.652;2023-04-03T01:22:19;102334.19;;;13.08
69415;BMP280;56608;43.530;-5.652;2023-04-03T01:24:40;102323.81;;;13.06
69415;BMP280;56608;43.530;-5.652;2023-04-03T01:25:48;102328.06;;;13.04
69415;BMP280;56608;43.530;-5.652;2023-04-03T01:26:49;102326.13;;;13.04
69415;BMP280;56608;43.530;-5.652;2023-04-03T01:27:50;102315.03;;;12.99
69415;BMP280;56608;43.530;-5.652;2023-04-03T01:28:50;102316.91;;;13.02
69415;BMP280;56608;43.530;-5.652;2023-04-03T01:29:53;102314.22;;;13.02
69415;BMP280;56608;43.530;-5.652;2023-04-03T01:32:06;102310.44;;;12.95
69415;BMP280;56608;43.530;-5.652;2023-04-03T01:33:07;102303.94;;;12.93
69415;BMP280;56608;43.530;-5.652;2023-04-03T01:34:07;102303.22;;;12.89
69415;BMP280;56608;43.530;-5.652;2023-04-03T01:35:08;102297.50;;;12.87
69415;BMP280;56608;43.530;-5.652;2023-04-03T01:36:09;102295.91;;;12.89
69415;BMP280;56608;43.530;-5.652;2023-04-03T01:37:10;102297.06;;;12.88
69415;BMP280;56608;43.530;-5.652;2023-04-03T01:38:10;102300.19;;;12.87
69415;BMP280;56608;43.530;-5.652;2023-04-03T01:39:11;102302.13;;;12.86
69415;BMP280;56608;43.530;-5.652;2023-04-03T01:40:11;102303.66;;;12.87
69415;BMP280;56608;43.530;-5.652;2023-04-03T01:41:12;102304.34;;;12.91
69415;BMP280;56608;43.530;-5.652;2023-04-03T01:42:12;102295.09;;;12.92
69415;BMP280;56608;43.530;-5.652;2023-04-03T01:43:13;102304.75;;;12.90
69415;BMP280;56608;43.530;-5.652;2023-04-03T01:44:13;102298.19;;;12.91
69415;BMP280;56608;43.530;-5.652;2023-04-03T01:45:13;102296.34;;;12.88
69415;BMP280;56608;43.530;-5.652;2023-04-03T01:46:14;102296.72;;;12.86
69415;BMP280;56608;43.530;-5.652;2023-04-03T01:47:15;102297.06;;;12.88
69415;BMP280;56608;43.530;-5.652;2023-04-03T01:48:15;102294.37;;;12.88
69415;BMP280;56608;43.530;-5.652;2023-04-03T01:49:16;102290.16;;;12.87
69415;BMP280;56608;43.530;-5.652;2023-04-03T01:50:16;102288.97;;;12.88
69415;BMP280;56608;43.530;-5.652;2023-04-03T01:51:17;102293.63;;;12.88
69415;BMP280;56608;43.530;-5.652;2023-04-03T01:52:17;102289.44;;;12.83
69415;BMP280;56608;43.530;-5.652;2023-04-03T01:53:17;102288.28;;;12.84
69415;BMP280;56608;43.530;-5.652;2023-04-03T01:54:17;102286.75;;;12.83
69415;BMP280;56608;43.530;-5.652;2023-04-03T01:55:18;102282.53;;;12.82
69415;BMP280;56608;43.530;-5.652;2023-04-03T01:56:18;102284.53;;;12.78
69415;BMP280;56608;43.530;-5.652;2023-04-03T01:57:18;102278.38;;;12.78
69415;BMP280;56608;43.530;-5.652;2023-04-03T01:58:19;102283.38;;;12.79
69415;BMP280;56608;43.530;-5.652;2023-04-03T01:59:19;102289.94;;;12.78
69415;BMP280;56608;43.530;-5.652;2023-04-03T02:00:19;102281.84;;;12.78
69415;BMP280;56608;43.530;-5.652;2023-04-03T02:01:20;102285.66;;;12.81
69415;BMP280;56608;43.530;-5.652;2023-04-03T02:02:21;102285.22;;;12.82
69415;BMP280;56608;43.530;-5.652;2023-04-03T02:03:21;102281.75;;;12.82
69415;BMP280;56608;43.530;-5.652;2023-04-03T02:04:21;102271.41;;;12.80
69415;BMP280;56608;43.530;-5.652;2023-04-03T02:05:22;102272.97;;;12.78
69415;BMP280;56608;43.530;-5.652;2023-04-03T02:06:22;102274.91;;;12.77
69415;BMP280;56608;43.530;-5.652;2023-04-03T02:07:22;102278.78;;;12.76
69415;BMP280;56608;43.530;-5.652;2023-04-03T02:08:23;102273.06;;;12.74
69415;BMP280;56608;43.530;-5.652;2023-04-03T02:09:23;102275.00;;;12.70
69415;BMP280;56608;43.530;-5.652;2023-04-03T02:10:24;102277.28;;;12.72
69415;BMP280;56608;43.530;-5.652;2023-04-03T02:11:24;102283.09;;;12.70
69415;BMP280;56608;43.530;-5.652;2023-04-03T02:12:25;102272.28;;;12.70
69415;BMP280;56608;43.530;-5.652;2023-04-03T02:13:25;102275.41;;;12.69
69415;BMP280;56608;43.530;-5.652;2023-04-03T02:14:25;102273.13;;;12.67
69415;BMP280;56608;43.530;-5.652;2023-04-03T02:15:27;102261.63;;;12.63
69415;BMP280;56608;43.530;-5.652;2023-04-03T02:16:27;102265.47;;;12.62
69415;BMP280;56608;43.530;-5.652;2023-04-03T02:17:28;102259.41;;;12.58
69415;BMP280;56608;43.530;-5.652;2023-04-03T02:18:29;102257.50;;;12.55
69415;BMP280;56608;43.530;-5.652;2023-04-03T02:19:29;102250.94;;;12.56
69415;BMP280;56608;43.530;-5.652;2023-04-03T02:20:29;102250.19;;;12.55
69415;BMP280;56608;43.530;-5.652;2023-04-03T02:21:30;102252.94;;;12.52
69415;BMP280;56608;43.530;-5.652;2023-04-03T02:22:30;102253.34;;;12.50
69415;BMP280;56608;43.530;-5.652;2023-04-03T02:23:31;102251.81;;;12.49
69415;BMP280;56608;43.530;-5.652;2023-04-03T02:24:31;102254.91;;;12.48
69415;BMP280;56608;43.530;-5.652;2023-04-03T02:25:32;102248.00;;;12.47
69415;BMP280;56608;43.530;-5.652;2023-04-03T02:26:32;102253.78;;;12.45
69415;BMP280;56608;43.530;-5.652;2023-04-03T02:27:32;102252.66;;;12.43
69415;BMP280;56608;43.530;-5.652;2023-04-03T02:28:33;102248.09;;;12.40
69415;BMP280;56608;43.530;-5.652;2023-04-03T02:29:33;102244.22;;;12.41
69415;BMP280;56608;43.530;-5.652;2023-04-03T02:30:34;102249.59;;;12.41
69415;BMP280;56608;43.530;-5.652;2023-04-03T02:31:34;102250.78;;;12.40
69415;BMP280;56608;43.530;-5.652;2023-04-03T02:32:35;102243.47;;;12.40
69415;BMP280;56608;43.530;-5.652;2023-04-03T02:33:35;102243.03;;;12.42
69415;BMP280;56608;43.530;-5.652;2023-04-03T02:34:38;102242.75;;;12.36
69415;BMP280;56608;43.530;-5.652;2023-04-03T02:35:38;102240.47;;;12.35
69415;BMP280;56608;43.530;-5.652;2023-04-03T02:36:39;102227.41;;;12.33
69415;BMP280;56608;43.530;-5.652;2023-04-03T02:37:39;102227.41;;;12.33
69415;BMP280;56608;43.530;-5.652;2023-04-03T02:38:40;102234.00;;;12.29
69415;BMP280;56608;43.530;-5.652;2023-04-03T02:39:40;102228.25;;;12.27
69415;BMP280;56608;43.530;-5.652;2023-04-03T02:40:41;102224.06;;;12.26
69415;BMP280;56608;43.530;-5.652;2023-04-03T02:41:41;102221.75;;;12.24
69415;BMP280;56608;43.530;-5.652;2023-04-03T02:42:41;102219.84;;;12.21
69415;BMP280;56608;43.530;-5.652;2023-04-03T02:43:42;102218.75;;;12.18
69415;BMP280;56608;43.530;-5.652;2023-04-03T02:44:42;102221.44;;;12.18
69415;BMP280;56608;43.530;-5.652;2023-04-03T02:45:42;102224.53;;;12.17
69415;BMP280;56608;43.530;-5.652;2023-04-03T02:46:43;102217.63;;;12.16
69415;BMP280;56608;43.530;-5.652;2023-04-03T02:47:43;102214.56;;;12.14
69415;BMP280;56608;43.530;-5.652;2023-04-03T02:48:44;102214.94;;;12.12
69415;BMP280;56608;43.530;-5.652;2023-04-03T02:49:44;102204.19;;;12.12
69415;BMP280;56608;43.530;-5.652;2023-04-03T02:50:45;102204.59;;;12.11
69415;BMP280;56608;43.530;-5.652;2023-04-03T02:51:46;102210.03;;;12.07
69415;BMP280;56608;43.530;-5.652;2023-04-03T02:52:47;102204.75;;;12.00
69415;BMP280;56608;43.530;-5.652;2023-04-03T02:53:47;102208.59;;;11.99
69415;BMP280;56608;43.530;-5.652;2023-04-03T02:54:48;102209.44;;;11.96
69415;BMP280;56608;43.530;-5.652;2023-04-03T02:55:48;102207.88;;;11.95
69415;BMP280;56608;43.530;-5.652;2023-04-03T02:56:49;102207.84;;;11.99
69415;BMP280;56608;43.530;-5.652;2023-04-03T02:57:49;102201.28;;;12.00
69415;BMP280;56608;43.530;-5.652;2023-04-03T02:58:49;102200.88;;;12.01
69415;BMP280;56608;43.530;-5.652;2023-04-03T02:59:50;102205.19;;;11.95
69415;BMP280;56608;43.530;-5.652;2023-04-03T03:00:50;102198.66;;;11.96
69415;BMP280;56608;43.530;-5.652;2023-04-03T03:01:50;102203.28;;;11.92
69415;BMP280;56608;43.530;-5.652;2023-04-03T03:02:51;102194.44;;;11.92
69415;BMP280;56608;43.530;-5.652;2023-04-03T03:03:51;102197.19;;;11.88
69415;BMP280;56608;43.530;-5.652;2023-04-03T03:04:51;102194.50;;;11.88
69415;BMP280;56608;43.530;-5.652;2023-04-03T03:06:02;102195.66;;;11.87
69415;BMP280;56608;43.530;-5.652;2023-04-03T03:07:02;102191.06;;;11.84
69415;BMP280;56608;43.530;-5.652;2023-04-03T03:08:03;102202.66;;;11.81
69415;BMP280;56608;43.530;-5.652;2023-04-03T03:09:03;102193.53;;;11.75
69415;BMP280;56608;43.530;-5.652;2023-04-03T03:10:04;102198.47;;;11.76
69415;BMP280;56608;43.530;-5.652;2023-04-03T03:11:05;102196.63;;;11.73
69415;BMP280;56608;43.530;-5.652;2023-04-03T03:12:05;102192.75;;;11.74
69415;BMP280;56608;43.530;-5.652;2023-04-03T03:13:05;102195.44;;;11.74
69415;BMP280;56608;43.530;-5.652;2023-04-03T03:14:06;102182.06;;;11.67
69415;BMP280;56608;43.530;-5.652;2023-04-03T03:15:06;102188.28;;;11.61
69415;BMP280;56608;43.530;-5.652;2023-04-03T03:16:07;102182.13;;;11.60
69415;BMP280;56608;43.530;-5.652;2023-04-03T03:17:07;102181.72;;;11.62
69415;BMP280;56608;43.530;-5.652;2023-04-03T03:18:07;102178.31;;;11.58
69415;BMP280;56608;43.530;-5.652;2023-04-03T03:19:07;102177.94;;;11.56
69415;BMP280;56608;43.530;-5.652;2023-04-03T03:20:08;102181.00;;;11.58
69415;BMP280;56608;43.530;-5.652;2023-04-03T03:21:08;102179.13;;;11.55
69415;BMP280;56608;43.530;-5.652;2023-04-03T03:22:09;102179.53;;;11.53
69415;BMP280;56608;43.530;-5.652;2023-04-03T03:23:10;102175.31;;;11.52
69415;BMP280;56608;43.530;-5.652;2023-04-03T03:24:10;102180.31;;;11.54
69415;BMP280;56608;43.530;-5.652;2023-04-03T03:25:12;102171.88;;;11.52
69415;BMP280;56608;43.530;-5.652;2023-04-03T03:26:12;102171.12;;;11.48
69415;BMP280;56608;43.530;-5.652;2023-04-03T03:27:12;102173.47;;;11.46
69415;BMP280;56608;43.530;-5.652;2023-04-03T03:28:13;102173.06;;;11.47
69415;BMP280;56608;43.530;-5.652;2023-04-03T03:29:13;102162.34;;;11.40
69415;BMP280;56608;43.530;-5.652;2023-04-03T03:30:13;102166.97;;;11.39
69415;BMP280;56608;43.530;-5.652;2023-04-03T03:31:14;102166.19;;;11.39
69415;BMP280;56608;43.530;-5.652;2023-04-03T03:32:15;102162.41;;;11.36
69415;BMP280;56608;43.530;-5.652;2023-04-03T03:33:15;102169.31;;;11.37
69415;BMP280;56608;43.530;-5.652;2023-04-03T03:34:17;102158.56;;;11.37
69415;BMP280;56608;43.530;-5.652;2023-04-03T03:35:17;102163.94;;;11.37
69415;BMP280;56608;43.530;-5.652;2023-04-03T03:36:18;102155.53;;;11.32
69415;BMP280;56608;43.530;-5.652;2023-04-03T03:37:18;102157.91;;;11.26
69415;BMP280;56608;43.530;-5.652;2023-04-03T03:38:19;102157.91;;;11.26
69415;BMP280;56608;43.530;-5.652;2023-04-03T03:39:19;102155.97;;;11.27
69415;BMP280;56608;43.530;-5.652;2023-04-03T03:40:20;102153.66;;;11.29
69415;BMP280;56608;43.530;-5.652;2023-04-03T03:41:20;102160.94;;;11.28
69415;BMP280;56608;43.530;-5.652;2023-04-03T03:42:20;102157.88;;;11.30
69415;BMP280;56608;43.530;-5.652;2023-04-03T03:43:21;102152.50;;;11.26
69415;BMP280;56608;43.530;-5.652;2023-04-03T03:44:21;102150.97;;;11.29
69415;BMP280;56608;43.530;-5.652;2023-04-03T03:45:21;102148.72;;;11.24
69415;BMP280;56608;43.530;-5.652;2023-04-03T03:46:21;102152.59;;;11.19
69415;BMP280;56608;43.530;-5.652;2023-04-03T03:47:22;102153.72;;;11.22
69415;BMP280;56608;43.530;-5.652;2023-04-03T03:48:22;102152.16;;;11.24
69415;BMP280;56608;43.530;-5.652;2023-04-03T03:49:23;102150.97;;;11.25
69415;BMP280;56608;43.530;-5.652;2023-04-03T03:50:23;102142.91;;;11.25
69415;BMP280;56608;43.530;-5.652;2023-04-03T03:51:23;102152.88;;;11.28
69415;BMP280;56608;43.530;-5.652;2023-04-03T03:52:24;102150.22;;;11.25
69415;BMP280;56608;43.530;-5.652;2023-04-03T03:53:24;102152.16;;;11.24
69415;BMP280;56608;43.530;-5.652;2023-04-03T03:54:25;102147.19;;;11.23
69415;BMP280;56608;43.530;-5.652;2023-04-03T03:55:25;102144.06;;;11.24
69415;BMP280;56608;43.530;-5.652;2023-04-03T03:56:26;102149.47;;;11.24
69415;BMP280;56608;43.530;-5.652;2023-04-03T03:57:26;102147.12;;;11.26
69415;BMP280;56608;43.530;-5.652;2023-04-03T03:58:28;102141.03;;;11.22
69415;BMP280;56608;43.530;-5.652;2023-04-03T03:59:29;102149.13;;;11.19
69415;BMP280;56608;43.530;-5.652;2023-04-03T04:00:29;102145.69;;;11.18
69415;BMP280;56608;43.530;-5.652;2023-04-03T04:01:30;102139.91;;;11.16
69415;BMP280;56608;43.530;-5.652;2023-04-03T04:02:30;102141.84;;;11.19
69415;BMP280;56608;43.530;-5.652;2023-04-03T04:03:30;102141.03;;;11.22
69415;BMP280;56608;43.530;-5.652;2023-04-03T04:04:31;102137.22;;;11.16
69415;BMP280;56608;43.530;-5.652;2023-04-03T04:05:31;102137.22;;;11.16
69415;BMP280;56608;43.530;-5.652;2023-04-03T04:06:31;102145.28;;;11.16
69415;BMP280;56608;43.530;-5.652;2023-04-03T04:07:32;102137.22;;;11.16
69415;BMP280;56608;43.530;-5.652;2023-04-03T04:08:32;102131.09;;;11.16
69415;BMP280;56608;43.530;-5.652;2023-04-03T04:09:32;102134.19;;;11.14
69415;BMP280;56608;43.530;-5.652;2023-04-03T04:10:33;102128.41;;;11.16
69415;BMP280;56608;43.530;-5.652;2023-04-03T04:11:34;102132.66;;;11.13
69415;BMP280;56608;43.530;-5.652;2023-04-03T04:12:34;102126.53;;;11.09
69415;BMP280;56608;43.530;-5.652;2023-04-03T04:13:35;102132.00;;;11.02
69415;BMP280;56608;43.530;-5.652;2023-04-03T04:14:35;102127.38;;;11.02
69415;BMP280;56608;43.530;-5.652;2023-04-03T04:15:36;102128.16;;;11.03
69415;BMP280;56608;43.530;-5.652;2023-04-03T04:16:36;102120.91;;;11.00
69415;BMP280;56608;43.530;-5.652;2023-04-03T04:17:36;102124.78;;;10.95
69415;BMP280;56608;43.530;-5.652;2023-04-03T04:18:37;102126.69;;;10.95
69415;BMP280;56608;43.530;-5.652;2023-04-03T04:19:37;102120.22;;;10.89
69415;BMP280;56608;43.530;-5.652;2023-04-03T04:20:38;102129.81;;;10.90
69415;BMP280;56608;43.530;-5.652;2023-04-03T04:21:38;102120.56;;;10.91
69415;BMP280;56608;43.530;-5.652;2023-04-03T04:22:39;102120.22;;;10.92
69415;BMP280;56608;43.530;-5.652;2023-04-03T04:23:39;102117.50;;;10.89
69415;BMP280;56608;43.530;-5.652;2023-04-03T04:24:40;102109.06;;;10.87
69415;BMP280;56608;43.530;-5.652;2023-04-03T04:25:40;102115.63;;;10.86
69415;BMP280;56608;43.530;-5.652;2023-04-03T04:26:40;102108.75;;;10.81
69415;BMP280;56608;43.530;-5.652;2023-04-03T04:27:40;102114.91;;;10.82
69415;BMP280;56608;43.530;-5.652;2023-04-03T04:28:41;102105.34;;;10.77
69415;BMP280;56608;43.530;-5.652;2023-04-03T04:29:41;102110.69;;;10.81
69415;BMP280;56608;43.530;-5.652;2023-04-03T04:30:42;102106.06;;;10.81
69415;BMP280;56608;43.530;-5.652;2023-04-03T04:31:42;102105.38;;;10.74
69415;BMP280;56608;43.530;-5.652;2023-04-03T04:32:42;102107.81;;;10.57
69415;BMP280;56608;43.530;-5.652;2023-04-03T04:33:43;102101.69;;;10.53
69415;BMP280;56608;43.530;-5.652;2023-04-03T04:34:43;102098.69;;;10.44
69415;BMP280;56608;43.530;-5.652;2023-04-03T04:35:43;102100.72;;;10.29
69415;BMP280;56608;43.530;-5.652;2023-04-03T04:36:43;102104.53;;;10.28
69415;BMP280;56608;43.530;-5.652;2023-04-03T04:37:44;102102.62;;;10.29
69415;BMP280;56608;43.530;-5.652;2023-04-03T04:38:45;102096.91;;;10.27
69415;BMP280;56608;43.530;-5.652;2023-04-03T04:39:45;102101.13;;;10.24
69415;BMP280;56608;43.530;-5.652;2023-04-03T04:40:46;102101.91;;;10.25
69415;BMP280;56608;43.530;-5.652;2023-04-03T04:41:47;102093.16;;;10.17
69415;BMP280;56608;43.530;-5.652;2023-04-03T04:42:47;102091.63;;;10.16
69415;BMP280;56608;43.530;-5.652;2023-04-03T04:43:50;102093.16;;;10.17
69415;BMP280;56608;43.530;-5.652;2023-04-03T04:44:51;102094.25;;;10.20
69415;BMP280;56608;43.530;-5.652;2023-04-03T04:46:04;102095.44;;;10.12
69415;BMP280;56608;43.530;-5.652;2023-04-03T04:47:04;102094.34;;;10.02
69415;BMP280;56608;43.530;-5.652;2023-04-03T04:48:05;102098.66;;;9.92
69415;BMP280;56608;43.530;-5.652;2023-04-03T04:49:05;102097.50;;;9.90
69415;BMP280;56608;43.530;-5.652;2023-04-03T04:50:06;102095.63;;;9.80
69415;BMP280;56608;43.530;-5.652;2023-04-03T04:51:06;102093.28;;;9.85
69415;BMP280;56608;43.530;-5.652;2023-04-03T04:52:06;102089.09;;;9.88
69415;BMP280;56608;43.530;-5.652;2023-04-03T04:53:07;102091.34;;;9.86
69415;BMP280;56608;43.530;-5.652;2023-04-03T04:54:08;102084.50;;;9.78
69415;BMP280;56608;43.530;-5.652;2023-04-03T04:55:08;102082.97;;;9.77
69415;BMP280;56608;43.530;-5.652;2023-04-03T04:56:09;102083.00;;;9.73
69415;BMP280;56608;43.530;-5.652;2023-04-03T04:57:10;102085.66;;;9.80
69415;BMP280;56608;43.530;-5.652;2023-04-03T04:58:10;102084.53;;;9.74
69415;BMP280;56608;43.530;-5.652;2023-04-03T04:59:11;102079.19;;;9.74
69415;BMP280;56608;43.530;-5.652;2023-04-03T05:00:11;102082.97;;;9.80
69415;BMP280;56608;43.530;-5.652;2023-04-03T05:01:12;102083.72;;;9.84
69415;BMP280;56608;43.530;-5.652;2023-04-03T05:02:12;102077.97;;;9.82
69415;BMP280;56608;43.530;-5.652;2023-04-03T05:03:12;102079.47;;;9.87
69415;BMP280;56608;43.530;-5.652;2023-04-03T05:04:13;102076.03;;;9.86
69415;BMP280;56608;43.530;-5.652;2023-04-03T05:05:13;102082.91;;;9.87
69415;BMP280;56608;43.530;-5.652;2023-04-03T05:06:13;102077.19;;;9.89
69415;BMP280;56608;43.530;-5.652;2023-04-03T05:07:14;102067.94;;;9.93
69415;BMP280;56608;43.530;-5.652;2023-04-03T05:08:14;102075.16;;;10.04
69415;BMP280;56608;43.530;-5.652;2023-04-03T05:09:14;102070.53;;;10.08
69415;BMP280;56608;43.530;-5.652;2023-04-03T05:10:15;102080.13;;;10.09
69415;BMP280;56608;43.530;-5.652;2023-04-03T05:11:15;102068.25;;;10.03
69415;BMP280;56608;43.530;-5.652;2023-04-03T05:12:16;102067.16;;;10.00
69415;BMP280;56608;43.530;-5.652;2023-04-03T05:13:16;102063.78;;;9.89
69415;BMP280;56608;43.530;-5.652;2023-04-03T05:14:16;102067.63;;;9.81
69415;BMP280;56608;43.530;-5.652;2023-04-03T05:15:17;102062.69;;;9.69
69415;BMP280;56608;43.530;-5.652;2023-04-03T05:16:17;102058.16;;;9.51
69415;BMP280;56608;43.530;-5.652;2023-04-03T05:17:17;102059.31;;;9.54
69415;BMP280;56608;43.530;-5.652;2023-04-03T05:18:18;102060.09;;;9.51
69415;BMP280;56608;43.530;-5.652;2023-04-03T05:19:18;102061.66;;;9.48
69415;BMP280;56608;43.530;-5.652;2023-04-03T05:20:19;102061.69;;;9.38
69415;BMP280;56608;43.530;-5.652;2023-04-03T05:21:20;102062.44;;;9.42
69415;BMP280;56608;43.530;-5.652;2023-04-03T05:22:23;102069.31;;;9.43
69415;BMP280;56608;43.530;-5.652;2023-04-03T05:23:23;102059.38;;;9.43
69415;BMP280;56608;43.530;-5.652;2023-04-03T05:24:23;102055.56;;;9.37
69415;BMP280;56608;43.530;-5.652;2023-04-03T05:25:24;102060.16;;;9.37
69415;BMP280;56608;43.530;-5.652;2023-04-03T05:26:25;102052.50;;;9.39
69415;BMP280;56608;43.530;-5.652;2023-04-03T05:27:26;102056.66;;;9.47
69415;BMP280;56608;43.530;-5.652;2023-04-03T05:28:28;102058.22;;;9.41
69415;BMP280;56608;43.530;-5.652;2023-04-03T05:29:28;102060.16;;;9.37
69415;BMP280;56608;43.530;-5.652;2023-04-03T05:30:29;102060.94;;;9.26
69415;BMP280;56608;43.530;-5.652;2023-04-03T05:31:29;102056.72;;;9.25
69415;BMP280;56608;43.530;-5.652;2023-04-03T05:32:29;102056.72;;;9.25
69415;BMP280;56608;43.530;-5.652;2023-04-03T05:33:30;102050.19;;;9.34
69415;BMP280;56608;43.530;-5.652;2023-04-03T05:34:30;102060.13;;;9.40
69415;BMP280;56608;43.530;-5.652;2023-04-03T05:35:30;102050.16;;;9.41
69415;BMP280;56608;43.530;-5.652;2023-04-03T05:36:31;102046.72;;;9.44
69415;BMP280;56608;43.530;-5.652;2023-04-03T05:37:31;102049.78;;;9.46
69415;BMP280;56608;43.530;-5.652;2023-04-03T05:38:31;102054.38;;;9.42
69415;BMP280;56608;43.530;-5.652;2023-04-03T05:39:32;102051.66;;;9.49
69415;BMP280;56608;43.530;-5.652;2023-04-03T05:40:33;102055.91;;;9.46
69415;BMP280;56608;43.530;-5.652;2023-04-03T05:41:33;102055.91;;;9.46
69415;BMP280;56608;43.530;-5.652;2023-04-03T05:42:33;102053.25;;;9.32
69415;BMP280;56608;43.530;-5.652;2023-04-03T05:43:34;102053.28;;;9.21
69415;BMP280;56608;43.530;-5.652;2023-04-03T05:44:37;102058.28;;;9.05
69415;BMP280;56608;43.530;-5.652;2023-04-03T05:45:38;102056.38;;;9.13
69415;BMP280;56608;43.530;-5.652;2023-04-03T05:46:38;102053.69;;;9.20
69415;BMP280;56608;43.530;-5.652;2023-04-03T05:47:38;102055.22;;;9.17